createdAt,value
2022-09-28T00:00:03.339Z,22.40
2022-09-28T00:02:30.123Z,22.60
2022-09-28T00:04:56.830Z,22.70
2022-09-28T00:07:23.567Z,22.80
2022-09-28T00:09:50.272Z,23.00
2022-09-28T00:12:16.917Z,23.10
2022-09-28T00:14:44.661Z,23.20
2022-09-28T00:17:12.423Z,23.20
2022-09-28T00:19:42.757Z,23.20
2022-09-28T00:22:09.499Z,23.10
2022-09-28T00:24:37.403Z,23.10
2022-09-28T00:27:04.252Z,23.00
2022-09-28T00:29:31.844Z,23.00
2022-09-28T00:32:02.993Z,22.90
2022-09-28T00:34:33.217Z,22.90
2022-09-28T00:37:00.285Z,22.80
2022-09-28T00:39:27.187Z,22.80
2022-09-28T00:41:54.120Z,22.80
2022-09-28T00:44:26.891Z,22.70
2022-09-28T00:46:58.947Z,22.70
2022-09-28T00:49:28.936Z,22.70
2022-09-28T00:51:55.627Z,22.60
2022-09-28T00:54:22.301Z,22.60
2022-09-28T00:56:50.682Z,22.60
2022-09-28T00:59:17.644Z,22.60
2022-09-28T01:01:44.393Z,22.60
2022-09-28T01:04:11.113Z,22.60
2022-09-28T01:06:37.797Z,22.60
2022-09-28T01:09:05.205Z,22.60
2022-09-28T01:11:32.033Z,22.50
2022-09-28T01:13:58.748Z,22.50
2022-09-28T01:16:28.951Z,22.50
2022-09-28T01:18:58.750Z,22.50
2022-09-28T01:21:25.541Z,22.50
2022-09-28T01:24:11.039Z,22.50
2022-09-28T01:26:37.684Z,22.40
2022-09-28T01:29:13.744Z,22.40
2022-09-28T01:31:41.893Z,22.40
2022-09-28T01:34:13.891Z,22.40
2022-09-28T01:36:42.851Z,22.40
2022-09-28T01:39:10.122Z,22.40
2022-09-28T01:41:36.919Z,22.40
2022-09-28T01:44:03.566Z,22.30
2022-09-28T01:46:44.905Z,22.30
2022-09-28T01:49:13.122Z,22.30
2022-09-28T01:52:06.270Z,22.30
2022-09-28T01:54:35.167Z,22.30
2022-09-28T01:57:06.244Z,22.30
2022-09-28T01:59:33.179Z,22.30
2022-09-28T02:02:01.802Z,22.30
2022-09-28T02:04:40.164Z,22.30
2022-09-28T02:07:09.881Z,22.30
2022-09-28T02:09:43.590Z,22.30
2022-09-28T02:12:11.657Z,22.30
2022-09-28T02:14:38.346Z,22.30
2022-09-28T02:17:05.046Z,22.30
2022-09-28T02:19:31.947Z,22.30
2022-09-28T02:22:14.019Z,22.20
2022-09-28T02:24:42.016Z,22.20
2022-09-28T02:27:19.689Z,22.20
2022-09-28T02:29:46.311Z,22.30
2022-09-28T02:32:12.947Z,22.40
2022-09-28T02:34:39.597Z,22.50
2022-09-28T02:37:06.252Z,22.60
2022-09-28T02:39:32.904Z,22.80
2022-09-28T02:42:05.772Z,23.00
2022-09-28T02:44:51.356Z,23.00
2022-09-28T02:47:22.521Z,23.20
2022-09-28T02:49:58.469Z,23.10
2022-09-28T02:52:25.142Z,23.10
2022-09-28T02:54:57.864Z,23.10
2022-09-28T02:57:30.092Z,23.00
2022-09-28T03:00:13.222Z,22.90
2022-09-28T03:02:49.161Z,22.90
2022-09-28T03:05:16.098Z,22.80
2022-09-28T03:07:46.119Z,22.80
2022-09-28T03:10:12.774Z,22.70
2022-09-28T03:12:39.478Z,22.70
2022-09-28T03:15:26.411Z,22.70
2022-09-28T03:17:53.067Z,22.60
2022-09-28T03:20:19.733Z,22.60
2022-09-28T03:23:00.244Z,22.60
2022-09-28T03:25:33.118Z,22.60
2022-09-28T03:27:59.811Z,22.60
2022-09-28T03:30:26.472Z,22.50
2022-09-28T03:33:03.143Z,22.50
2022-09-28T03:35:30.009Z,22.50
2022-09-28T03:37:56.815Z,22.50
2022-09-28T03:40:23.634Z,22.40
2022-09-28T03:42:50.326Z,22.50
2022-09-28T03:45:16.997Z,22.50
2022-09-28T03:47:46.962Z,22.40
2022-09-28T03:50:13.647Z,22.40
2022-09-28T03:52:40.324Z,22.40
2022-09-28T03:55:07.125Z,22.40
2022-09-28T03:57:33.776Z,22.40
2022-09-28T04:00:00.505Z,22.40
2022-09-28T04:02:27.390Z,22.30
2022-09-28T04:04:54.111Z,22.40
2022-09-28T04:07:20.765Z,22.30
2022-09-28T04:09:47.418Z,22.30
2022-09-28T04:12:14.056Z,22.30
2022-09-28T04:14:40.681Z,22.30
2022-09-28T04:17:07.409Z,22.30
2022-09-28T04:19:34.081Z,22.30
2022-09-28T04:22:01.729Z,22.20
2022-09-28T04:24:28.377Z,22.20
2022-09-28T04:27:15.003Z,22.20
2022-09-28T04:29:41.751Z,22.20
2022-09-28T04:32:08.416Z,22.20
2022-09-28T04:34:37.243Z,22.20
2022-09-28T04:37:05.418Z,22.20
2022-09-28T04:39:32.089Z,22.20
2022-09-28T04:41:58.791Z,22.20
2022-09-28T04:44:25.436Z,22.20
2022-09-28T04:46:52.090Z,22.20
2022-09-28T04:49:18.877Z,22.20
2022-09-28T04:51:45.665Z,22.20
2022-09-28T04:54:12.405Z,22.20
2022-09-28T04:56:39.262Z,22.20
2022-09-28T04:59:06.221Z,22.20
2022-09-28T05:01:32.973Z,22.20
2022-09-28T05:03:59.725Z,22.20
2022-09-28T05:06:28.625Z,22.10
2022-09-28T05:08:57.390Z,22.20
2022-09-28T05:11:24.239Z,22.30
2022-09-28T05:13:50.954Z,22.40
2022-09-28T05:16:17.797Z,22.50
2022-09-28T05:18:44.469Z,22.60
2022-09-28T05:21:12.751Z,22.70
2022-09-28T05:23:39.746Z,22.90
2022-09-28T05:26:06.530Z,22.90
2022-09-28T05:28:33.384Z,22.90
2022-09-28T05:31:03.550Z,22.90
2022-09-28T05:33:31.017Z,22.90
2022-09-28T05:36:01.022Z,22.80
2022-09-28T05:38:28.622Z,22.80
2022-09-28T05:40:55.554Z,22.70
2022-09-28T05:43:22.618Z,22.70
2022-09-28T05:45:54.336Z,22.60
2022-09-28T05:48:21.923Z,22.60
2022-09-28T05:50:52.523Z,22.60
2022-09-28T05:53:19.325Z,22.60
2022-09-28T05:55:46.042Z,22.50
2022-09-28T05:58:13.814Z,22.50
2022-09-28T06:00:40.861Z,22.50
2022-09-28T06:03:09.431Z,22.40
2022-09-28T06:05:36.481Z,22.40
2022-09-28T06:08:04.405Z,22.40
2022-09-28T06:10:31.272Z,22.40
2022-09-28T06:12:58.018Z,22.40
2022-09-28T06:15:25.885Z,22.40
2022-09-28T06:17:56.369Z,22.40
2022-09-28T06:20:23.015Z,22.40
2022-09-28T06:22:53.363Z,22.30
2022-09-28T06:25:21.579Z,22.30
2022-09-28T06:28:14.545Z,22.30
2022-09-28T06:30:41.506Z,22.30
2022-09-28T06:33:09.804Z,22.30
2022-09-28T06:35:36.513Z,22.20
2022-09-28T06:38:03.242Z,22.20
2022-09-28T06:40:30.387Z,22.20
2022-09-28T06:42:57.195Z,22.20
2022-09-28T06:45:25.388Z,22.20
2022-09-28T06:47:56.660Z,22.20
2022-09-28T06:50:24.188Z,22.20
2022-09-28T06:52:51.834Z,22.20
2022-09-28T06:55:18.660Z,22.20
2022-09-28T06:57:45.359Z,22.20
2022-09-28T07:00:15.251Z,22.20
2022-09-28T07:02:42.029Z,22.20
2022-09-28T07:05:09.559Z,22.20
2022-09-28T07:07:36.481Z,22.20
2022-09-28T07:10:03.217Z,22.20
2022-09-28T07:12:30.264Z,22.20
2022-09-28T07:14:57.685Z,22.20
2022-09-28T07:17:24.557Z,22.20
2022-09-28T07:19:52.750Z,22.20
2022-09-28T07:22:23.732Z,22.20
2022-09-28T07:24:57.816Z,22.10
2022-09-28T07:27:28.733Z,22.10
2022-09-28T07:29:55.612Z,22.10
2022-09-28T07:32:22.340Z,22.10
2022-09-28T07:34:49.507Z,22.10
2022-09-28T07:37:18.862Z,22.20
2022-09-28T07:40:04.134Z,22.30
2022-09-28T07:42:30.834Z,22.40
2022-09-28T07:44:57.693Z,22.60
2022-09-28T07:47:30.814Z,22.70
2022-09-28T07:50:00.796Z,22.80
2022-09-28T07:52:28.792Z,23.00
2022-09-28T07:54:55.652Z,23.10
2022-09-28T07:57:22.429Z,23.10
2022-09-28T07:59:49.832Z,23.00
2022-09-28T08:02:18.620Z,22.90
2022-09-28T08:04:45.559Z,22.90
2022-09-28T08:07:12.398Z,22.80
2022-09-28T08:09:39.024Z,22.80
2022-09-28T08:12:05.730Z,22.80
2022-09-28T08:14:35.461Z,22.70
2022-09-28T08:17:02.130Z,22.70
2022-09-28T08:19:51.782Z,22.70
2022-09-28T08:22:18.927Z,22.60
2022-09-28T08:24:45.912Z,22.60
2022-09-28T08:27:12.942Z,22.60
2022-09-28T08:29:39.816Z,22.50
2022-09-28T08:32:08.213Z,22.50
2022-09-28T08:34:38.378Z,22.50
2022-09-28T08:37:19.049Z,22.50
2022-09-28T08:39:46.159Z,22.40
2022-09-28T08:42:31.950Z,22.50
2022-09-28T08:44:59.235Z,22.40
2022-09-28T08:47:46.478Z,22.40
2022-09-28T08:50:14.318Z,22.40
2022-09-28T08:52:41.132Z,22.40
2022-09-28T08:55:16.494Z,22.40
2022-09-28T08:58:05.456Z,22.40
2022-09-28T09:00:39.918Z,22.40
2022-09-28T09:03:06.725Z,22.30
2022-09-28T09:05:56.759Z,22.30
2022-09-28T09:08:42.317Z,22.30
2022-09-28T09:11:10.865Z,22.30
2022-09-28T09:13:37.659Z,22.30
2022-09-28T09:16:24.328Z,22.30
2022-09-28T09:18:54.079Z,22.30
2022-09-28T09:21:36.087Z,22.30
2022-09-28T09:24:04.787Z,22.20
2022-09-28T09:26:34.933Z,22.20
2022-09-28T09:29:20.813Z,22.20
2022-09-28T09:32:20.556Z,22.20
2022-09-28T09:34:47.212Z,22.20
2022-09-28T09:37:20.582Z,22.20
2022-09-28T09:39:56.432Z,22.20
2022-09-28T09:42:37.309Z,22.20
2022-09-28T09:45:25.071Z,22.20
2022-09-28T09:48:08.609Z,22.20
2022-09-28T09:50:55.064Z,22.20
2022-09-28T09:53:21.793Z,22.20
2022-09-28T09:55:50.479Z,22.20
2022-09-28T09:58:23.229Z,22.20
2022-09-28T10:00:50.888Z,22.20
2022-09-28T10:03:21.053Z,22.40
2022-09-28T10:05:49.244Z,22.50
2022-09-28T10:08:16.277Z,22.60
2022-09-28T10:10:46.258Z,22.80
2022-09-28T10:13:13.584Z,22.90
2022-09-28T10:15:40.278Z,23.00
2022-09-28T10:18:09.569Z,23.10
2022-09-28T10:20:37.580Z,23.10
2022-09-28T10:23:05.016Z,23.00
2022-09-28T10:25:36.596Z,22.90
2022-09-28T10:28:03.332Z,22.90
2022-09-28T10:30:30.060Z,22.80
2022-09-28T10:32:59.564Z,22.80
2022-09-28T10:35:27.212Z,22.80
2022-09-28T10:37:55.576Z,22.70
2022-09-28T10:40:30.272Z,22.70
2022-09-28T10:43:01.613Z,22.70
2022-09-28T10:45:28.380Z,22.60
2022-09-28T10:47:55.814Z,22.60
2022-09-28T10:50:23.422Z,22.60
2022-09-28T10:52:50.090Z,22.60
2022-09-28T10:55:19.798Z,22.60
2022-09-28T10:57:46.455Z,22.50
2022-09-28T11:00:31.646Z,22.50
2022-09-28T11:02:58.313Z,22.50
2022-09-28T11:05:27.772Z,22.50
2022-09-28T11:07:55.911Z,22.50
2022-09-28T11:10:25.165Z,22.50
2022-09-28T11:12:51.966Z,22.50
2022-09-28T11:15:19.707Z,22.40
2022-09-28T11:17:46.623Z,22.40
2022-09-28T11:20:29.404Z,22.40
2022-09-28T11:22:58.356Z,22.40
2022-09-28T11:25:28.605Z,22.40
2022-09-28T11:27:55.523Z,22.30
2022-09-28T11:30:34.464Z,22.30
2022-09-28T11:33:02.903Z,22.40
2022-09-28T11:35:30.014Z,22.60
2022-09-28T11:38:18.596Z,22.70
2022-09-28T11:40:59.555Z,22.80
2022-09-28T11:43:29.339Z,23.00
2022-09-28T11:46:22.595Z,23.10
2022-09-28T11:48:50.247Z,23.10
2022-09-28T11:51:18.541Z,23.10
2022-09-28T11:53:45.212Z,23.10
2022-09-28T11:56:14.942Z,23.00
2022-09-28T11:58:45.922Z,22.90
2022-09-28T12:01:18.874Z,22.90
2022-09-28T12:03:50.877Z,22.90
2022-09-28T12:06:18.500Z,22.80
2022-09-28T12:08:53.697Z,22.70
2022-09-28T12:11:20.372Z,22.70
2022-09-28T12:13:49.133Z,22.70
2022-09-28T12:19:13.020Z,22.70
2022-09-28T12:21:44.058Z,22.60
2022-09-28T12:24:10.735Z,22.60
2022-09-28T12:26:42.549Z,22.60
2022-09-28T12:29:16.769Z,22.50
2022-09-28T12:31:56.023Z,22.50
2022-09-28T12:34:22.722Z,22.50
2022-09-28T12:36:58.506Z,22.50
2022-09-28T12:39:56.428Z,22.50
2022-09-28T12:42:44.143Z,22.50
2022-09-28T12:45:20.038Z,22.50
2022-09-28T12:48:05.053Z,22.40
2022-09-28T12:50:41.619Z,22.50
2022-09-28T12:53:29.701Z,22.40
2022-09-28T12:56:02.609Z,22.40
2022-09-28T12:58:42.253Z,22.40
2022-09-28T13:01:15.387Z,22.40
2022-09-28T13:04:00.543Z,22.30
2022-09-28T13:06:47.496Z,22.40
2022-09-28T13:09:20.609Z,22.50
2022-09-28T13:11:51.960Z,22.70
2022-09-28T13:14:37.466Z,22.80
2022-09-28T13:17:25.787Z,22.90
2022-09-28T13:19:55.512Z,23.10
2022-09-28T13:22:22.178Z,23.10
2022-09-28T13:24:49.259Z,23.10
2022-09-28T13:27:18.746Z,23.00
2022-09-28T13:29:45.695Z,23.00
2022-09-28T13:32:12.786Z,22.90
2022-09-28T13:34:39.497Z,22.90
2022-09-28T13:37:24.963Z,22.80
2022-09-28T13:39:59.011Z,22.80
2022-09-28T13:42:25.835Z,22.70
2022-09-28T13:44:59.500Z,22.70
2022-09-28T13:47:38.460Z,22.70
2022-09-28T13:50:18.013Z,22.60
2022-09-28T13:53:03.882Z,22.60
2022-09-28T13:55:33.002Z,22.60
2022-09-28T13:58:04.520Z,22.50
2022-09-28T14:00:46.185Z,22.50
2022-09-28T14:03:13.287Z,22.50
2022-09-28T14:05:52.285Z,22.50
2022-09-28T14:08:30.091Z,22.50
2022-09-28T14:10:57.271Z,22.50
2022-09-28T14:13:45.401Z,22.50
2022-09-28T14:16:20.631Z,22.50
2022-09-28T14:18:51.141Z,22.40
2022-09-28T14:21:36.618Z,22.40
2022-09-28T14:24:18.071Z,22.40
2022-09-28T14:26:50.754Z,22.40
2022-09-28T14:29:27.450Z,22.40
2022-09-28T14:31:58.321Z,22.40
2022-09-28T14:34:33.655Z,22.40
2022-09-28T14:37:19.188Z,22.40
2022-09-28T14:40:04.601Z,22.60
2022-09-28T14:42:31.282Z,22.70
2022-09-28T14:45:06.690Z,22.90
2022-09-28T14:47:38.228Z,23.10
2022-09-28T14:50:22.226Z,23.20
2022-09-28T14:52:55.483Z,23.20
2022-09-28T14:55:29.325Z,23.10
2022-09-28T14:57:56.868Z,23.10
2022-09-28T15:00:25.927Z,23.00
2022-09-28T15:02:52.888Z,23.00
2022-09-28T15:05:24.264Z,22.90
2022-09-28T15:07:52.218Z,22.90
2022-09-28T15:10:28.261Z,22.80
2022-09-28T15:12:56.118Z,22.80
2022-09-28T15:15:28.496Z,22.80
2022-09-28T15:18:02.021Z,22.70
2022-09-28T15:20:38.148Z,22.70
2022-09-28T15:23:04.915Z,22.70
2022-09-28T15:25:32.064Z,22.70
2022-09-28T15:27:59.698Z,22.60
2022-09-28T15:30:31.899Z,22.60
2022-09-28T15:33:19.047Z,22.60
2022-09-28T15:35:48.778Z,22.60
2022-09-28T15:38:19.426Z,22.60
2022-09-28T15:40:47.545Z,22.60
2022-09-28T15:43:23.643Z,22.50
2022-09-28T15:46:04.050Z,22.50
2022-09-28T15:48:57.093Z,22.50
2022-09-28T15:51:23.882Z,22.50
2022-09-28T15:53:50.543Z,22.50
2022-09-28T15:56:17.217Z,22.50
2022-09-28T15:58:43.872Z,22.50
2022-09-28T16:01:40.082Z,22.50
2022-09-28T16:04:25.595Z,22.40
2022-09-28T16:07:24.838Z,22.50
2022-09-28T16:09:55.791Z,22.60
2022-09-28T16:12:22.897Z,22.80
2022-09-28T16:14:49.976Z,23.00
2022-09-28T16:17:35.136Z,23.10
2022-09-28T16:20:05.838Z,23.20
2022-09-28T16:22:32.802Z,23.20
2022-09-28T16:25:00.887Z,23.20
2022-09-28T16:27:27.744Z,23.20
2022-09-28T16:30:05.236Z,23.10
2022-09-28T16:32:36.144Z,23.00
2022-09-28T16:35:05.974Z,23.00
2022-09-28T16:37:32.695Z,23.00
2022-09-28T16:39:59.339Z,22.90
2022-09-28T16:42:25.998Z,22.90
2022-09-28T16:44:53.062Z,22.80
2022-09-28T16:47:19.822Z,22.80
2022-09-28T16:49:48.027Z,22.80
2022-09-28T16:52:34.648Z,22.70
2022-09-28T16:55:38.924Z,22.70
2022-09-28T16:58:04.748Z,22.70
2022-09-28T17:00:31.896Z,22.60
2022-09-28T17:02:58.675Z,22.60
2022-09-28T17:05:25.636Z,22.70
2022-09-28T17:07:59.711Z,22.70
2022-09-28T17:10:41.207Z,22.70
2022-09-28T17:13:23.696Z,22.70
2022-09-28T17:15:50.497Z,22.70
2022-09-28T17:18:17.856Z,22.70
2022-09-28T17:20:48.720Z,22.70
2022-09-28T17:23:15.678Z,22.70
2022-09-28T17:25:42.506Z,22.60
2022-09-28T17:28:15.552Z,22.60
2022-09-28T17:30:42.304Z,22.60
2022-09-28T17:33:09.160Z,22.60
2022-09-28T17:35:39.632Z,22.60
2022-09-28T17:38:06.551Z,22.70
2022-09-28T17:40:33.436Z,22.80
2022-09-28T17:43:00.553Z,23.00
2022-09-28T17:45:28.790Z,23.10
2022-09-28T17:47:55.533Z,23.20
2022-09-28T17:50:26.248Z,23.30
2022-09-28T17:52:53.109Z,23.30
2022-09-28T17:55:24.959Z,23.20
2022-09-28T17:57:51.804Z,23.20
2022-09-28T18:00:18.641Z,23.10
2022-09-28T18:02:45.530Z,23.10
2022-09-28T18:05:14.707Z,23.00
2022-09-28T18:07:47.280Z,22.90
2022-09-28T18:10:16.244Z,23.00
2022-09-28T18:12:45.997Z,22.90
2022-09-28T18:15:13.817Z,22.90
2022-09-28T18:17:40.569Z,22.80
2022-09-28T18:20:07.903Z,22.80
2022-09-28T18:22:35.675Z,22.80
2022-09-28T18:25:04.125Z,22.70
2022-09-28T18:27:31.517Z,22.70
2022-09-28T18:29:58.337Z,22.70
2022-09-28T18:32:25.309Z,22.70
2022-09-28T18:34:52.150Z,22.70
2022-09-28T18:37:19.051Z,22.60
2022-09-28T18:39:46.121Z,22.60
2022-09-28T18:42:13.373Z,22.60
2022-09-28T18:44:40.221Z,22.60
2022-09-28T18:47:06.968Z,22.60
2022-09-28T18:49:34.429Z,22.60
2022-09-28T18:52:01.719Z,22.60
2022-09-28T18:54:28.562Z,22.50
2022-09-28T18:57:01.230Z,22.50
2022-09-28T18:59:28.722Z,22.50
2022-09-28T19:01:55.846Z,22.50
2022-09-28T19:04:22.722Z,22.50
2022-09-28T19:06:54.560Z,22.50
2022-09-28T19:09:21.952Z,22.50
2022-09-28T19:11:49.017Z,22.40
2022-09-28T19:14:15.906Z,22.40
2022-09-28T19:16:43.581Z,22.40
2022-09-28T19:19:12.370Z,22.40
2022-09-28T19:21:39.738Z,22.40
2022-09-28T19:24:06.487Z,22.40
2022-09-28T19:26:33.282Z,22.40
2022-09-28T19:28:59.963Z,22.30
2022-09-28T19:31:26.804Z,22.40
2022-09-28T19:33:53.496Z,22.40
2022-09-28T19:36:21.890Z,22.50
2022-09-28T19:38:48.569Z,22.60
2022-09-28T19:41:39.517Z,22.80
2022-09-28T19:44:25.284Z,22.90
2022-09-28T19:47:06.717Z,23.10
2022-09-28T19:49:36.845Z,23.20
2022-09-28T19:52:16.173Z,23.20
2022-09-28T19:54:44.563Z,23.10
2022-09-28T19:57:11.932Z,23.10
2022-09-28T19:59:38.789Z,23.00
2022-09-28T20:02:05.944Z,22.90
2022-09-28T20:04:32.580Z,22.90
2022-09-28T20:06:59.319Z,22.80
2022-09-28T20:09:25.998Z,22.80
2022-09-28T20:11:53.205Z,22.80
2022-09-28T20:14:21.471Z,22.80
2022-09-28T20:16:50.195Z,22.70
2022-09-28T20:19:19.102Z,22.70
2022-09-28T20:21:48.090Z,22.70
2022-09-28T20:24:16.233Z,22.60
2022-09-28T20:26:43.439Z,22.60
2022-09-28T20:29:10.658Z,22.60
2022-09-28T20:31:37.441Z,22.60
2022-09-28T20:34:04.473Z,22.60
2022-09-28T20:36:34.053Z,22.50
2022-09-28T20:39:01.851Z,22.50
2022-09-28T20:41:28.848Z,22.50
2022-09-28T20:43:56.220Z,22.50
2022-09-28T20:46:23.032Z,22.50
2022-09-28T20:48:50.316Z,22.50
2022-09-28T20:51:17.817Z,22.40
2022-09-28T20:53:47.100Z,22.40
2022-09-28T20:56:18.098Z,22.40
2022-09-28T20:58:44.794Z,22.40
2022-09-28T21:01:13.716Z,22.40
2022-09-28T21:03:40.473Z,22.40
2022-09-28T21:06:11.514Z,22.40
2022-09-28T21:08:38.899Z,22.30
2022-09-28T21:11:06.567Z,22.30
2022-09-28T21:13:33.306Z,22.30
2022-09-28T21:16:03.429Z,22.30
2022-09-28T21:18:30.700Z,22.30
2022-09-28T21:20:57.405Z,22.30
2022-09-28T21:23:25.004Z,22.30
2022-09-28T21:26:00.659Z,22.30
2022-09-28T21:28:27.362Z,22.30
2022-09-28T21:30:54.096Z,22.30
2022-09-28T21:33:20.829Z,22.20
2022-09-28T21:35:47.606Z,22.30
2022-09-28T21:38:14.266Z,22.20
2022-09-28T21:40:41.928Z,22.20
2022-09-28T21:43:08.636Z,22.30
2022-09-28T21:45:35.363Z,22.20
2022-09-28T21:48:02.000Z,22.20
2022-09-28T21:50:28.737Z,22.20
2022-09-28T21:52:55.406Z,22.20
2022-09-28T21:55:22.364Z,22.20
2022-09-28T21:57:50.622Z,22.30
2022-09-28T22:00:18.228Z,22.40
2022-09-28T22:02:45.170Z,22.50
2022-09-28T22:05:12.358Z,22.60
2022-09-28T22:07:39.477Z,22.80
2022-09-28T22:10:07.056Z,22.90
2022-09-28T22:12:33.679Z,23.00
2022-09-28T22:15:00.422Z,23.00
2022-09-28T22:17:27.244Z,23.00
2022-09-28T22:19:53.927Z,22.90
2022-09-28T22:22:20.622Z,22.90
2022-09-28T22:24:47.331Z,22.80
2022-09-28T22:27:15.436Z,22.80
2022-09-28T22:29:42.613Z,22.80
2022-09-28T22:32:09.308Z,22.70
2022-09-28T22:34:35.968Z,22.70
2022-09-28T22:37:05.658Z,22.70
2022-09-28T22:39:37.524Z,22.60
2022-09-28T22:42:04.738Z,22.60
2022-09-28T22:44:31.459Z,22.50
2022-09-28T22:46:58.142Z,22.50
2022-09-28T22:49:24.846Z,22.50
2022-09-28T22:51:54.566Z,22.50
2022-09-28T22:54:21.606Z,22.40
2022-09-28T22:56:48.267Z,22.50
2022-09-28T22:59:14.920Z,22.40
2022-09-28T23:01:41.648Z,22.40
2022-09-28T23:04:08.630Z,22.40
2022-09-28T23:06:35.288Z,22.40
2022-09-28T23:09:02.182Z,22.40
2022-09-28T23:11:29.048Z,22.40
2022-09-28T23:13:56.729Z,22.40
2022-09-28T23:16:25.529Z,22.30
2022-09-28T23:18:52.834Z,22.30
2022-09-28T23:21:20.416Z,22.30
2022-09-28T23:23:50.521Z,22.20
2022-09-28T23:26:17.940Z,22.30
2022-09-28T23:28:44.663Z,22.20
2022-09-28T23:31:12.113Z,22.20
2022-09-28T23:33:39.864Z,22.20
2022-09-28T23:36:06.845Z,22.20
2022-09-28T23:38:33.503Z,22.20
2022-09-28T23:41:00.289Z,22.20
2022-09-28T23:43:27.047Z,22.20
2022-09-28T23:45:53.714Z,22.20
2022-09-28T23:48:20.370Z,22.20
2022-09-28T23:50:47.032Z,22.20
2022-09-28T23:53:14.280Z,22.20
2022-09-28T23:55:44.136Z,22.20
2022-09-28T23:58:11.181Z,22.20
